createdAt,value
2022-12-20T00:02:20.588Z,99633.17
2022-12-20T00:07:22.585Z,99624.10
2022-12-20T00:12:29.816Z,99615.73
2022-12-20T00:17:31.712Z,99608.48
2022-12-20T00:22:33.610Z,99620.00
2022-12-20T00:27:35.450Z,99612.52
2022-12-20T00:32:38.543Z,99603.28
2022-12-20T00:37:40.517Z,99596.23
2022-12-20T00:42:42.278Z,99585.55
2022-12-20T00:47:44.059Z,99575.08
2022-12-20T00:52:45.814Z,99610.27
2022-12-20T00:57:47.667Z,99607.88
2022-12-20T01:02:49.566Z,99604.27
2022-12-20T01:07:51.525Z,99600.20
2022-12-20T01:12:54.158Z,99601.95
2022-12-20T01:17:56.073Z,99590.38
2022-12-20T01:22:57.843Z,99588.05
2022-12-20T01:27:59.607Z,99588.98
2022-12-20T01:33:01.479Z,99581.96
2022-12-20T01:38:03.452Z,99559.27
2022-12-20T01:43:05.251Z,99554.12
2022-12-20T01:48:07.632Z,99540.98
2022-12-20T01:53:10.320Z,99528.59
2022-12-20T01:58:14.501Z,99528.77
2022-12-20T02:03:16.966Z,99550.97
2022-12-20T02:08:20.338Z,99550.61
2022-12-20T02:13:30.353Z,99545.59
2022-12-20T02:18:43.228Z,99556.05
2022-12-20T02:24:03.661Z,99532.56
2022-12-20T02:29:27.697Z,99524.50
2022-12-20T02:34:33.900Z,99534.35
2022-12-20T02:39:39.267Z,99533.29
2022-12-20T02:45:10.246Z,99538.74
2022-12-20T02:50:12.990Z,99544.52
2022-12-20T02:55:16.284Z,99532.36
2022-12-20T03:00:21.589Z,99541.55
2022-12-20T03:05:25.709Z,99524.50
2022-12-20T03:10:28.275Z,99523.23
2022-12-20T03:15:30.227Z,99514.21
2022-12-20T03:20:33.372Z,99508.67
2022-12-20T03:25:35.181Z,99509.57
2022-12-20T03:30:37.916Z,99507.36
2022-12-20T03:35:39.976Z,99509.41
2022-12-20T03:40:42.971Z,99500.02
2022-12-20T03:45:46.875Z,99505.77
2022-12-20T03:50:49.235Z,99513.84
2022-12-20T03:55:51.081Z,99504.74
2022-12-20T04:00:53.332Z,99506.16
2022-12-20T04:06:16.191Z,99502.19
2022-12-20T04:11:18.478Z,99506.52
2022-12-20T04:16:29.852Z,99510.42
2022-12-20T04:21:34.435Z,99517.12
2022-12-20T04:26:36.624Z,99517.14
2022-12-20T04:31:39.494Z,99524.06
2022-12-20T04:36:41.625Z,99512.22
2022-12-20T04:41:49.096Z,99505.13
2022-12-20T04:46:50.973Z,99499.83
2022-12-20T04:51:53.404Z,99501.20
2022-12-20T04:56:55.958Z,99492.33
2022-12-20T05:01:58.472Z,99481.36
2022-12-20T05:07:20.566Z,99468.25
2022-12-20T05:12:26.371Z,99458.79
2022-12-20T05:17:31.756Z,99459.45
2022-12-20T05:22:53.887Z,99459.08
2022-12-20T05:27:56.098Z,99463.96
2022-12-20T05:32:59.433Z,99464.33
2022-12-20T05:38:02.830Z,99463.35
2022-12-20T05:43:06.966Z,99458.42
2022-12-20T05:48:17.320Z,99453.98
2022-12-20T05:53:19.689Z,99443.84
2022-12-20T05:58:24.606Z,99444.48
2022-12-20T06:03:33.107Z,99445.37
2022-12-20T06:08:37.232Z,99443.89
2022-12-20T06:13:43.170Z,99454.48
2022-12-20T06:18:45.286Z,99455.81
2022-12-20T06:23:48.486Z,99445.48
2022-12-20T06:28:57.150Z,99448.98
2022-12-20T06:34:25.304Z,99443.75
2022-12-20T06:39:27.591Z,99439.95
2022-12-20T06:44:49.042Z,99458.96
2022-12-20T06:49:51.005Z,99459.25
2022-12-20T06:54:57.071Z,99462.05
2022-12-20T06:59:59.639Z,99463.73
2022-12-20T07:05:01.618Z,99469.25
2022-12-20T07:10:04.041Z,99466.58
2022-12-20T07:15:06.147Z,99466.15
2022-12-20T07:20:13.255Z,99461.91
2022-12-20T07:25:16.174Z,99459.81
2022-12-20T07:30:19.355Z,99460.48
2022-12-20T07:35:21.151Z,99452.10
2022-12-20T07:40:22.995Z,99451.98
2022-12-20T07:45:24.897Z,99464.91
2022-12-20T07:50:28.688Z,99456.82
2022-12-20T07:55:31.347Z,99452.27
2022-12-20T08:00:33.697Z,99456.93
2022-12-20T08:05:41.070Z,99450.27
2022-12-20T08:10:43.674Z,99453.69
2022-12-20T08:15:45.472Z,99454.77
2022-12-20T08:20:47.958Z,99445.83
2022-12-20T08:25:50.219Z,99444.95
2022-12-20T08:30:52.294Z,99434.28
2022-12-20T08:35:59.302Z,99435.55
2022-12-20T08:41:08.004Z,99435.11
2022-12-20T08:46:12.192Z,99448.76
2022-12-20T08:51:14.165Z,99442.88
2022-12-20T08:56:17.870Z,99436.02
2022-12-20T09:01:21.908Z,99436.66
2022-12-20T09:06:24.068Z,99437.75
2022-12-20T09:11:26.921Z,99432.81
2022-12-20T09:16:32.747Z,99432.09
2022-12-20T09:21:35.302Z,99433.55
2022-12-20T09:26:37.260Z,99429.89
2022-12-20T09:31:39.107Z,99424.08
2022-12-20T09:36:40.869Z,99406.52
2022-12-20T09:41:44.360Z,99396.13
2022-12-20T09:46:55.167Z,99382.75
2022-12-20T09:52:21.705Z,99388.28
2022-12-20T09:57:34.488Z,99406.05
2022-12-20T10:02:58.353Z,99410.35
2022-12-20T10:08:15.706Z,99411.98
2022-12-20T10:13:48.604Z,99410.70
2022-12-20T10:19:13.738Z,99399.95
2022-12-20T10:24:21.508Z,99376.81
2022-12-20T10:29:23.884Z,99361.17
2022-12-20T10:34:27.838Z,99352.56
2022-12-20T10:39:43.879Z,99347.80
2022-12-20T10:44:45.691Z,99344.16
2022-12-20T10:49:47.398Z,99344.73
2022-12-20T10:54:49.191Z,99330.49
2022-12-20T11:00:05.595Z,99331.64
2022-12-20T11:05:14.543Z,99313.79
2022-12-20T11:10:28.996Z,99308.86
2022-12-20T11:15:34.898Z,99317.16
2022-12-20T11:20:58.667Z,99320.64
2022-12-20T11:26:28.440Z,99327.02
2022-12-20T11:32:00.713Z,99314.30
2022-12-20T11:37:14.375Z,99283.19
2022-12-20T11:42:31.509Z,99283.08
2022-12-20T11:48:01.177Z,99288.38
2022-12-20T11:53:20.586Z,99281.20
2022-12-20T11:58:41.403Z,99298.41
2022-12-20T12:04:18.286Z,99302.21
2022-12-20T12:09:30.609Z,99284.39
2022-12-20T12:14:52.572Z,99270.06
2022-12-20T12:20:01.367Z,99257.36
2022-12-20T12:25:12.186Z,99264.98
2022-12-20T12:30:16.373Z,99257.71
2022-12-20T12:35:52.614Z,99264.20
2022-12-20T12:41:03.779Z,99271.51
2022-12-20T12:46:14.657Z,99254.71
2022-12-20T12:51:24.081Z,99249.52
2022-12-20T12:56:43.144Z,99273.02
2022-12-20T13:02:16.213Z,99271.31
2022-12-20T13:07:28.823Z,99261.60
2022-12-20T13:12:36.505Z,99246.62
2022-12-20T13:17:45.332Z,99257.45
2022-12-20T13:23:05.562Z,99254.81
2022-12-20T13:28:19.682Z,99248.82
2022-12-20T13:33:42.050Z,99253.52
2022-12-20T13:38:44.907Z,99257.23
2022-12-20T13:43:49.678Z,99267.86
2022-12-20T13:49:00.941Z,99264.17
2022-12-20T13:54:05.622Z,99255.62
2022-12-20T13:59:31.106Z,99250.48
2022-12-20T14:04:42.885Z,99243.56
2022-12-20T14:09:51.989Z,99242.05
2022-12-20T14:14:54.467Z,99234.17
2022-12-20T14:20:17.309Z,99239.11
2022-12-20T14:25:28.070Z,99243.20
2022-12-20T14:30:32.635Z,99251.71
2022-12-20T14:35:34.484Z,99246.14
2022-12-20T14:40:42.610Z,99236.96
2022-12-20T14:45:44.472Z,99216.61
2022-12-20T14:50:53.761Z,99211.10
2022-12-20T14:55:56.277Z,99197.44
2022-12-20T15:01:22.224Z,99207.92
2022-12-20T15:06:34.859Z,99210.66
2022-12-20T15:11:38.139Z,99213.98
2022-12-20T15:16:47.781Z,99219.60
2022-12-20T15:21:50.589Z,99218.98
2022-12-20T15:26:52.463Z,99219.55
2022-12-20T15:32:21.272Z,99209.09
2022-12-20T15:37:22.993Z,99200.73
2022-12-20T15:42:24.898Z,99197.89
2022-12-20T15:47:26.628Z,99188.27
2022-12-20T15:52:28.415Z,99194.52
2022-12-20T15:57:30.939Z,99186.03
2022-12-20T16:02:33.492Z,99182.61
2022-12-20T16:07:35.639Z,99187.11
2022-12-20T16:12:37.426Z,99176.02
2022-12-20T16:17:39.263Z,99181.48
2022-12-20T16:22:41.148Z,99171.58
2022-12-20T16:27:42.861Z,99166.16
2022-12-20T16:32:44.577Z,99166.25
2022-12-20T16:37:46.281Z,99164.48
2022-12-20T16:42:47.981Z,99162.18
2022-12-20T16:47:50.095Z,99153.10
2022-12-20T16:52:52.309Z,99153.27
2022-12-20T16:57:54.397Z,99155.23
2022-12-20T17:02:56.881Z,99154.32
2022-12-20T17:07:59.127Z,99157.11
2022-12-20T17:13:01.998Z,99160.63
2022-12-20T17:18:03.919Z,99160.82
2022-12-20T17:23:08.775Z,99164.55
2022-12-20T17:28:10.525Z,99157.95
2022-12-20T17:33:15.410Z,99135.86
2022-12-20T17:38:17.124Z,99143.48
2022-12-20T17:43:18.809Z,99145.14
2022-12-20T17:48:20.593Z,99139.64
2022-12-20T17:53:22.269Z,99136.40
2022-12-20T17:58:24.026Z,99143.05
2022-12-20T18:04:03.762Z,99136.83
2022-12-20T18:08:52.321Z,99127.08
2022-12-20T18:13:57.608Z,99113.72
2022-12-20T18:19:00.912Z,99104.27
2022-12-20T18:24:02.636Z,99106.98
2022-12-20T18:29:04.418Z,99112.33
2022-12-20T18:34:07.078Z,99106.04
2022-12-20T18:39:12.618Z,99110.50
2022-12-20T18:44:14.369Z,99122.64
2022-12-20T18:49:16.123Z,99123.33
2022-12-20T18:54:18.133Z,99113.69
2022-12-20T18:59:21.212Z,99109.02
2022-12-20T19:04:25.148Z,99111.27
2022-12-20T19:09:27.184Z,99107.34
2022-12-20T19:14:31.036Z,99096.95
2022-12-20T19:19:32.865Z,99083.11
2022-12-20T19:24:34.603Z,99075.58
2022-12-20T19:29:36.324Z,99066.81
2022-12-20T19:34:38.166Z,99064.64
2022-12-20T19:39:39.821Z,99066.23
2022-12-20T19:44:41.598Z,99069.93
2022-12-20T19:49:43.321Z,99066.77
2022-12-20T19:54:45.107Z,99075.30
2022-12-20T19:59:50.880Z,99073.31
2022-12-20T20:04:57.272Z,99071.76
2022-12-20T20:09:59.102Z,99071.94
2022-12-20T20:15:01.098Z,99067.85
2022-12-20T20:20:03.070Z,99066.80
2022-12-20T20:25:05.407Z,99054.84
2022-12-20T20:30:07.888Z,99044.96
2022-12-20T20:35:11.066Z,99035.28
2022-12-20T20:40:14.278Z,99039.25
2022-12-20T20:45:16.991Z,99036.80
2022-12-20T20:50:18.751Z,99033.41
2022-12-20T20:55:20.449Z,99030.62
2022-12-20T21:00:22.412Z,99025.39
2022-12-20T21:10:46.197Z,99010.59
2022-12-20T21:15:48.139Z,99003.58
2022-12-20T21:20:50.253Z,98994.89
2022-12-20T21:25:58.575Z,98984.50
2022-12-20T21:31:02.453Z,98977.89
2022-12-20T21:36:06.928Z,98980.44
2022-12-20T21:41:12.387Z,98986.61
2022-12-20T21:46:14.271Z,98978.46
2022-12-20T21:51:20.715Z,98961.95
2022-12-20T21:56:24.226Z,98953.43
2022-12-20T22:01:28.012Z,98949.31
2022-12-20T22:06:31.586Z,98946.64
2022-12-20T22:11:34.680Z,98938.17
2022-12-20T22:16:37.789Z,98951.10
2022-12-20T22:21:39.731Z,98952.58
2022-12-20T22:26:41.712Z,98952.30
2022-12-20T22:31:43.538Z,98944.67
2022-12-20T22:36:45.346Z,98927.24
2022-12-20T22:41:47.045Z,98920.10
2022-12-20T22:46:48.833Z,98912.72
2022-12-20T22:52:05.927Z,98899.57
2022-12-20T22:57:10.398Z,98870.89
2022-12-20T23:02:12.332Z,98856.90
2022-12-20T23:07:14.434Z,98859.14
2022-12-20T23:12:35.135Z,98854.09
2022-12-20T23:17:36.840Z,98840.73
2022-12-20T23:22:38.578Z,98831.48
2022-12-20T23:27:43.015Z,98829.57
2022-12-20T23:32:44.957Z,98827.65
2022-12-20T23:37:47.226Z,98846.16
2022-12-20T23:42:48.973Z,98848.51
2022-12-20T23:47:50.739Z,98840.69
2022-12-20T23:52:52.462Z,98825.87
2022-12-20T23:57:54.231Z,98837.13
